createdAt,value
2022-09-30T04:02:17.714Z,9.63
2022-09-30T04:04:49.399Z,11.13
2022-09-30T04:07:21.219Z,9.27
2022-09-30T04:09:52.897Z,9.20
2022-09-30T04:12:24.624Z,12.03
2022-09-30T04:14:56.290Z,9.23
2022-09-30T04:17:29.318Z,9.73
2022-09-30T04:20:01.218Z,9.97
2022-09-30T04:22:32.882Z,9.00
2022-09-30T04:25:05.588Z,12.27
2022-09-30T04:27:37.813Z,15.03
2022-09-30T04:30:10.575Z,13.20
2022-09-30T04:32:44.088Z,14.57
2022-09-30T04:35:15.773Z,10.83
2022-09-30T04:37:47.690Z,15.13
2022-09-30T04:40:19.406Z,10.93
2022-09-30T04:42:51.107Z,13.50
2022-09-30T04:45:22.927Z,12.20
2022-09-30T04:47:56.062Z,10.60
2022-09-30T04:50:27.813Z,13.23
2022-09-30T04:52:59.489Z,9.70
2022-09-30T04:55:31.312Z,11.17
2022-09-30T04:58:03.004Z,11.60
2022-09-30T05:00:34.855Z,13.67
2022-09-30T05:03:07.909Z,12.97
2022-09-30T05:05:39.609Z,11.37
2022-09-30T05:08:11.265Z,14.53
2022-09-30T05:10:42.954Z,11.50
2022-09-30T05:13:14.646Z,13.43
2022-09-30T05:15:48.464Z,14.93
2022-09-30T05:18:21.652Z,14.77
2022-09-30T05:20:54.058Z,14.27
2022-09-30T05:23:26.960Z,13.67
2022-09-30T05:25:59.019Z,15.50
2022-09-30T05:28:30.789Z,14.17
2022-09-30T05:31:04.038Z,18.90
2022-09-30T05:33:37.385Z,16.47
2022-09-30T05:36:09.334Z,32.27
2022-09-30T05:38:41.023Z,49.50
2022-09-30T05:41:13.426Z,63.33
2022-09-30T05:43:45.076Z,33.57
2022-09-30T05:46:17.180Z,27.27
2022-09-30T05:48:52.771Z,22.87
2022-09-30T05:51:24.595Z,31.53
2022-09-30T05:53:56.435Z,48.70
2022-09-30T05:56:28.105Z,36.97
2022-09-30T05:58:59.824Z,25.93
2022-09-30T06:01:31.533Z,16.53
2022-09-30T06:04:04.741Z,18.23
2022-09-30T06:06:36.390Z,18.23
2022-09-30T06:09:08.055Z,17.73
2022-09-30T06:11:39.779Z,20.00
2022-09-30T06:14:11.437Z,12.37
2022-09-30T06:16:43.181Z,12.77
2022-09-30T06:19:16.219Z,13.90
2022-09-30T06:21:47.893Z,12.33
2022-09-30T06:24:19.592Z,10.47
2022-09-30T06:26:51.270Z,10.93
2022-09-30T06:29:23.024Z,11.53
2022-09-30T06:31:54.875Z,5.83
2022-09-30T06:34:28.021Z,6.30
2022-09-30T06:36:59.671Z,8.40
2022-09-30T06:39:31.345Z,6.00
2022-09-30T06:42:03.384Z,7.47
2022-09-30T06:44:46.111Z,5.10
2022-09-30T06:47:25.467Z,5.77
2022-09-30T06:49:59.449Z,5.67
2022-09-30T06:52:31.493Z,8.13
2022-09-30T06:55:03.632Z,5.50
2022-09-30T06:57:35.302Z,6.43
2022-09-30T07:00:08.154Z,8.67
2022-09-30T07:02:39.864Z,5.17
2022-09-30T07:05:12.904Z,6.70
2022-09-30T07:07:46.710Z,8.77
2022-09-30T07:10:18.569Z,4.33
2022-09-30T07:12:50.611Z,6.73
2022-09-30T07:15:22.665Z,10.48
2022-09-30T07:17:54.392Z,7.33
2022-09-30T07:20:27.413Z,5.93
2022-09-30T07:22:59.116Z,11.97
2022-09-30T07:25:30.819Z,7.40
2022-09-30T07:28:02.522Z,5.23
2022-09-30T07:30:34.328Z,6.10
2022-09-30T07:33:06.064Z,5.93
2022-09-30T07:35:39.190Z,7.97
2022-09-30T07:38:10.936Z,6.25
2022-09-30T07:40:42.702Z,8.20
2022-09-30T07:43:14.437Z,8.07
2022-09-30T07:45:47.530Z,7.27
2022-09-30T07:48:19.319Z,10.83
2022-09-30T07:50:55.155Z,9.70
2022-09-30T07:53:26.811Z,12.70
2022-09-30T07:56:02.709Z,9.77
2022-09-30T07:58:34.486Z,8.53
2022-09-30T08:01:06.371Z,8.90
2022-09-30T08:03:39.438Z,10.23
2022-09-30T08:06:13.630Z,10.20
2022-09-30T08:08:45.647Z,8.23
2022-09-30T08:11:17.434Z,9.60
2022-09-30T08:13:50.670Z,10.90
2022-09-30T08:16:23.447Z,9.97
2022-09-30T08:18:55.145Z,12.70
2022-09-30T08:21:28.481Z,10.37
2022-09-30T08:24:00.550Z,8.80
2022-09-30T08:26:32.281Z,13.20
2022-09-30T08:29:04.072Z,9.70
2022-09-30T08:31:35.800Z,12.57
2022-09-30T08:34:08.180Z,9.70
2022-09-30T08:36:41.209Z,13.83
2022-09-30T08:39:12.952Z,9.20
2022-09-30T08:41:59.755Z,14.27
2022-09-30T08:44:41.597Z,11.97
2022-09-30T08:47:28.791Z,12.60
2022-09-30T08:50:05.173Z,14.93
2022-09-30T08:52:54.956Z,13.77
2022-09-30T08:55:29.533Z,10.80
2022-09-30T08:58:01.161Z,13.10
2022-09-30T09:00:32.926Z,14.63
2022-09-30T09:03:04.570Z,12.90
2022-09-30T09:05:39.962Z,14.40
2022-09-30T09:08:17.209Z,16.97
2022-09-30T09:10:51.090Z,14.83
2022-09-30T09:13:34.129Z,16.50
2022-09-30T09:16:08.884Z,13.40
2022-09-30T09:18:48.373Z,12.47
2022-09-30T09:21:23.819Z,12.67
2022-09-30T09:23:58.243Z,12.50
2022-09-30T09:26:30.501Z,11.23
2022-09-30T09:29:08.012Z,15.43
2022-09-30T09:31:39.791Z,20.43
2022-09-30T09:34:12.121Z,13.93
2022-09-30T09:36:52.138Z,12.53
2022-09-30T09:39:38.195Z,11.97
2022-09-30T09:42:19.260Z,15.40
2022-09-30T09:44:52.943Z,13.80
2022-09-30T09:47:24.600Z,11.03
2022-09-30T09:49:57.951Z,10.70
2022-09-30T09:52:49.854Z,12.10
2022-09-30T09:55:23.007Z,13.07
2022-09-30T09:58:07.507Z,9.77
2022-09-30T10:00:39.157Z,15.80
2022-09-30T10:03:12.372Z,13.27
2022-09-30T10:05:44.041Z,11.50
2022-09-30T10:08:16.733Z,12.80
2022-09-30T10:10:50.725Z,9.87
2022-09-30T10:13:23.442Z,10.97
2022-09-30T10:15:56.138Z,14.93
2022-09-30T10:18:29.413Z,18.20
2022-09-30T10:21:02.214Z,13.63
2022-09-30T10:23:35.804Z,13.57
2022-09-30T10:26:18.257Z,18.57
2022-09-30T10:28:50.740Z,17.87
2022-09-30T10:31:23.370Z,12.20
2022-09-30T10:33:57.253Z,16.60
2022-09-30T10:36:31.085Z,9.73
2022-09-30T10:39:06.584Z,12.10
2022-09-30T10:41:40.298Z,12.03
2022-09-30T10:44:14.439Z,12.53
2022-09-30T10:46:46.792Z,13.37
2022-09-30T10:49:24.539Z,8.97
2022-09-30T10:51:56.379Z,10.40
2022-09-30T10:54:35.971Z,8.57
2022-09-30T10:57:14.070Z,11.20
2022-09-30T10:59:45.749Z,8.90
2022-09-30T11:02:22.678Z,9.83
2022-09-30T11:05:00.012Z,8.07
2022-09-30T11:07:33.533Z,10.37
2022-09-30T11:10:08.499Z,10.57
2022-09-30T11:12:44.365Z,11.80
2022-09-30T11:15:18.336Z,9.23
2022-09-30T11:17:53.532Z,6.70
2022-09-30T11:20:26.399Z,7.83
2022-09-30T11:23:00.462Z,10.50
2022-09-30T11:25:36.817Z,7.20
2022-09-30T11:28:23.387Z,9.93
2022-09-30T11:30:58.649Z,7.77
2022-09-30T11:33:46.938Z,6.13
2022-09-30T11:36:22.688Z,4.83
2022-09-30T11:39:08.430Z,7.57
2022-09-30T11:41:40.894Z,8.97
2022-09-30T11:44:20.125Z,6.57
2022-09-30T11:46:59.138Z,6.85
2022-09-30T11:49:39.212Z,9.73
2022-09-30T11:52:15.915Z,8.37
2022-09-30T11:54:59.018Z,8.70
2022-09-30T11:57:32.436Z,5.77
2022-09-30T12:00:09.511Z,5.50
2022-09-30T12:02:42.602Z,5.90
2022-09-30T12:05:16.975Z,3.77
2022-09-30T12:07:50.951Z,6.27
2022-09-30T12:10:25.510Z,5.80
2022-09-30T12:12:59.068Z,2.60
2022-09-30T12:15:32.237Z,8.53
2022-09-30T12:18:05.004Z,7.40
2022-09-30T12:20:37.811Z,3.37
2022-09-30T12:23:14.222Z,8.43
2022-09-30T12:25:47.120Z,5.97
2022-09-30T12:28:24.302Z,4.63
2022-09-30T12:31:00.994Z,5.22
2022-09-30T12:33:39.417Z,8.87
2022-09-30T12:36:38.669Z,5.43
2022-09-30T12:39:42.256Z,3.97
2022-09-30T12:42:44.801Z,3.70
2022-09-30T12:45:30.457Z,4.53
2022-09-30T12:48:05.049Z,3.37
2022-09-30T12:50:41.920Z,4.07
2022-09-30T12:53:16.822Z,3.83
2022-09-30T12:55:48.498Z,4.40
2022-09-30T12:58:22.069Z,4.43
2022-09-30T13:01:01.218Z,2.13
2022-09-30T13:03:49.658Z,3.70
2022-09-30T13:06:21.536Z,2.33
2022-09-30T13:09:18.475Z,4.13
2022-09-30T13:12:15.913Z,4.25
2022-09-30T13:14:47.584Z,2.45
2022-09-30T13:17:26.516Z,2.55
2022-09-30T13:19:59.597Z,3.45
2022-09-30T13:22:58.316Z,4.18
2022-09-30T13:25:43.749Z,1.83
2022-09-30T13:28:28.727Z,5.53
2022-09-30T13:31:14.279Z,4.70
2022-09-30T13:33:46.947Z,4.63
2022-09-30T13:36:28.326Z,1.52
2022-09-30T13:39:17.477Z,3.33
2022-09-30T13:42:06.125Z,3.53
2022-09-30T13:44:40.096Z,2.05
2022-09-30T13:47:17.644Z,2.58
2022-09-30T13:49:52.414Z,4.50
2022-09-30T13:52:26.231Z,4.78
2022-09-30T13:54:59.334Z,1.90
2022-09-30T13:57:32.658Z,4.20
2022-09-30T14:00:06.181Z,2.28
2022-09-30T14:03:01.127Z,2.83
2022-09-30T14:05:37.918Z,1.60
2022-09-30T14:08:27.523Z,3.22
2022-09-30T14:11:07.113Z,2.08
2022-09-30T14:13:47.227Z,3.25
2022-09-30T14:16:40.723Z,2.33
2022-09-30T14:19:25.098Z,2.83
2022-09-30T14:21:57.480Z,2.30
2022-09-30T14:24:37.296Z,2.23
2022-09-30T14:27:32.682Z,2.80
2022-09-30T14:30:06.165Z,2.95
2022-09-30T14:32:40.760Z,2.20
2022-09-30T14:35:14.412Z,2.75
2022-09-30T14:37:47.549Z,2.85
2022-09-30T14:40:24.877Z,3.70
2022-09-30T14:42:58.086Z,2.50
2022-09-30T14:45:31.596Z,3.37
2022-09-30T14:48:05.934Z,5.50
2022-09-30T14:50:41.440Z,2.38
2022-09-30T14:53:26.014Z,3.22
2022-09-30T14:55:59.153Z,2.75
2022-09-30T14:58:31.364Z,4.10
2022-09-30T15:01:05.259Z,3.70
2022-09-30T15:03:37.970Z,2.92
2022-09-30T15:06:17.524Z,3.88
2022-09-30T15:08:49.621Z,2.90
2022-09-30T15:11:24.125Z,3.15
2022-09-30T15:13:58.585Z,2.17
2022-09-30T15:16:31.928Z,4.00
2022-09-30T15:19:03.824Z,4.15
2022-09-30T15:21:35.832Z,5.60
2022-09-30T15:24:08.752Z,3.42
2022-09-30T15:26:41.735Z,2.90
2022-09-30T15:29:13.611Z,3.33
2022-09-30T15:31:46.083Z,4.27
2022-09-30T15:34:21.732Z,3.33
2022-09-30T15:36:56.861Z,2.60
2022-09-30T15:39:29.137Z,4.70
2022-09-30T15:42:02.158Z,2.72
2022-09-30T15:44:37.357Z,2.13
2022-09-30T15:47:09.214Z,2.72
2022-09-30T15:49:45.606Z,2.50
2022-09-30T15:52:26.073Z,2.40
2022-09-30T15:54:57.796Z,3.60
2022-09-30T15:57:45.233Z,3.83
2022-09-30T16:00:33.971Z,4.33
2022-09-30T16:03:24.552Z,4.85
2022-09-30T16:06:05.577Z,2.63
2022-09-30T16:08:42.606Z,1.70
2022-09-30T16:11:21.625Z,3.83
2022-09-30T16:13:54.645Z,3.00
2022-09-30T16:16:28.060Z,3.13
2022-09-30T16:18:59.836Z,3.33
2022-09-30T16:21:42.286Z,1.85
2022-09-30T16:24:47.894Z,2.07
2022-09-30T16:27:29.509Z,3.47
2022-09-30T16:30:03.014Z,2.83
2022-09-30T16:32:37.523Z,3.90
2022-09-30T16:35:15.927Z,3.67
2022-09-30T16:37:47.754Z,4.23
2022-09-30T16:40:21.450Z,3.57
2022-09-30T16:42:53.515Z,5.87
2022-09-30T16:45:26.912Z,6.00
2022-09-30T16:47:59.118Z,4.33
2022-09-30T16:50:33.592Z,4.13
2022-09-30T16:53:05.299Z,4.00
2022-09-30T16:55:36.964Z,2.63
2022-09-30T16:58:10.052Z,2.63
2022-09-30T17:00:43.382Z,3.10
2022-09-30T17:03:15.959Z,2.50
2022-09-30T17:05:47.841Z,2.38
2022-09-30T17:08:19.997Z,4.67
2022-09-30T17:10:51.645Z,3.08
2022-09-30T17:13:23.311Z,2.83
2022-09-30T17:15:56.384Z,3.37
2022-09-30T17:18:28.049Z,5.43
2022-09-30T17:20:59.787Z,3.47
2022-09-30T17:23:31.458Z,3.10
2022-09-30T17:26:04.316Z,4.17
2022-09-30T17:28:36.003Z,6.07
2022-09-30T17:31:09.081Z,2.40
2022-09-30T17:33:40.898Z,3.63
2022-09-30T17:36:12.992Z,6.43
2022-09-30T17:38:44.628Z,4.87
2022-09-30T17:41:16.281Z,6.40
2022-09-30T17:43:47.937Z,4.93
2022-09-30T17:46:20.992Z,2.77
2022-09-30T17:48:54.907Z,4.10
2022-09-30T17:51:26.565Z,5.00
2022-09-30T17:53:58.215Z,3.77
2022-09-30T17:56:29.857Z,6.33
2022-09-30T17:59:01.881Z,4.60
2022-09-30T18:01:35.426Z,7.37
2022-09-30T18:04:07.885Z,6.87
2022-09-30T18:06:39.509Z,5.17
2022-09-30T18:09:11.603Z,4.03
2022-09-30T18:11:44.179Z,3.60
2022-09-30T18:14:16.233Z,6.73
2022-09-30T18:16:49.286Z,4.30
2022-09-30T18:19:21.394Z,4.03
2022-09-30T18:21:53.402Z,3.60
2022-09-30T18:24:25.141Z,4.67
2022-09-30T18:26:56.773Z,3.50
2022-09-30T18:29:28.432Z,4.07
2022-09-30T18:32:01.746Z,6.30
2022-09-30T18:34:33.475Z,3.23
2022-09-30T18:37:05.118Z,4.37
2022-09-30T18:39:36.914Z,5.30
2022-09-30T18:42:08.574Z,4.43
2022-09-30T18:44:40.222Z,4.50
2022-09-30T18:47:13.204Z,7.00
2022-09-30T18:49:45.072Z,4.37
2022-09-30T18:52:16.761Z,5.03
2022-09-30T18:54:48.449Z,5.10
2022-09-30T18:57:20.079Z,6.63
2022-09-30T18:59:51.731Z,4.63
2022-09-30T19:02:24.718Z,3.10
2022-09-30T19:04:59.201Z,3.17
2022-09-30T19:07:31.506Z,2.60
2022-09-30T19:10:03.207Z,2.80
2022-09-30T19:12:35.125Z,5.03
2022-09-30T19:15:08.142Z,4.47
2022-09-30T19:17:41.384Z,3.07
2022-09-30T19:20:14.149Z,5.70
2022-09-30T19:22:45.792Z,2.93
2022-09-30T19:25:17.849Z,3.77
2022-09-30T19:27:49.855Z,3.23
2022-09-30T19:30:21.577Z,4.77
2022-09-30T19:32:56.192Z,4.17
2022-09-30T19:35:39.031Z,4.80
2022-09-30T19:38:11.889Z,3.57
2022-09-30T19:40:43.539Z,5.07
2022-09-30T19:43:15.220Z,5.03
2022-09-30T19:45:54.060Z,3.67
2022-09-30T19:48:27.381Z,3.80
2022-09-30T19:50:59.429Z,5.00
2022-09-30T19:53:31.250Z,7.27
2022-09-30T19:56:03.540Z,3.90
2022-09-30T19:58:35.840Z,3.83
2022-09-30T20:01:07.663Z,4.73
2022-09-30T20:03:40.851Z,5.27
2022-09-30T20:06:14.308Z,7.40
2022-09-30T20:08:50.818Z,3.47
2022-09-30T20:11:22.530Z,4.30
2022-09-30T20:13:55.097Z,5.97
2022-09-30T20:16:26.807Z,6.23
2022-09-30T20:18:59.868Z,4.60
2022-09-30T20:21:31.808Z,6.13
2022-09-30T20:24:03.814Z,10.23
2022-09-30T20:26:35.470Z,13.20
2022-09-30T20:29:07.369Z,7.40
2022-09-30T20:31:40.045Z,8.83
2022-09-30T20:34:13.832Z,15.67
2022-09-30T20:36:45.675Z,10.20
2022-09-30T20:39:17.348Z,13.87
2022-09-30T20:41:48.978Z,6.57
2022-09-30T20:44:20.657Z,6.87
2022-09-30T20:46:52.292Z,7.03
2022-09-30T20:49:25.305Z,9.63
2022-09-30T20:51:56.956Z,6.37
2022-09-30T20:54:28.632Z,6.63
2022-09-30T20:57:07.225Z,5.57
2022-09-30T20:59:39.409Z,6.27
2022-09-30T21:02:11.271Z,8.87
2022-09-30T21:04:44.312Z,7.63
2022-09-30T21:07:15.995Z,5.57
2022-09-30T21:09:47.669Z,4.40
2022-09-30T21:12:19.352Z,7.97
2022-09-30T21:14:51.005Z,6.10
2022-09-30T21:17:22.681Z,7.67
2022-09-30T21:19:55.714Z,5.20
2022-09-30T21:22:27.392Z,4.30
2022-09-30T21:24:59.013Z,6.13
2022-09-30T21:27:30.675Z,7.20
2022-09-30T21:30:02.336Z,4.97
2022-09-30T21:32:33.989Z,3.33
2022-09-30T21:35:07.811Z,4.10
2022-09-30T21:37:39.481Z,4.97
2022-09-30T21:40:11.421Z,4.97
2022-09-30T21:42:43.089Z,4.97
2022-09-30T21:45:14.777Z,3.83
2022-09-30T21:47:46.437Z,7.03
2022-09-30T21:50:19.438Z,4.57
2022-09-30T21:52:51.099Z,5.03
2022-09-30T21:55:22.732Z,5.03
2022-09-30T21:57:54.425Z,5.13
